Stetsonville, Wisconsin
Current Conditions -  °F | °C
As of 9:15 AM on Saturday 25 Oct 2014 (Local Time) from KMDZ Reporting Station
Clear Clear  
Wind Chill: 44°   Ceiling: Unl
Heat Index: 49°   Visibility: 10mi
Dew Point: 37°   Wind: 13mph
Humidity: 63%   Direction: 290°WNW
Pressure: 29.9"   Gusts: 18mph
Location:  45.08°N, 90.32°W
Report Text: KMDZ 251415Z AUTO 29011G16KT 10SM CLR 10/03 A2990 RMK AO2 T00960029
Loading
Personal Weather Stations






























Interactive Weather Map
Tropical Storm Tracking
New forecast layout! Learn more

10-Day Weather Forecast

Advertisements
Track Severe Weather on mobile